Dakota Dunes, South Dakota
Current Conditions -  °F | °C
As of 6:52 PM on Wednesday 22 Oct 2014 (Local Time) from KSUX Reporting Station
Moderate Rain Moderate Rain  
Wind Chill: 16°   Ceiling: 4000
Heat Index: 16°   Visibility: 4mi
Dew Point: 15°   Wind: 5mph
Humidity: 93%   Direction: 220°SW
Pressure: 30.02"   Gusts: NA
Location:  42.532°N, 96.5446°W
Report Text: KSUX 222352Z AUTO 22004KT 4SM RA BR BKN040 BKN050 OVC075 16/15 A3002 RMK AO2 LTG DSNT SE SLP166 P0034 60037 T01610150 10244 20161 53023
Loading
Personal Weather Stations






























Interactive Weather Map
Tropical Storm Tracking
New forecast layout! Learn more

10-Day Weather Forecast

Advertisements
Track Severe Weather on mobile